Time;durP1;ratioP1;P1;durP2;ratioP2;P2;SDS_P1;SDS_P2;PMS_P1;PMS_P2;Temp;Humidity;BMP_temperature;BMP_pressure;BME280_temperature;BME280_humidity;BME280_pressure;Samples;Min_cycle;Max_cycle;Signal;HPM_P1;HPM_P2
2022/09/12 00:00:40;;;;;;;11.23;4.82;;;14.10;99.90;;;;;;4991633;28;20030;-61
2022/09/12 00:03:06;;;;;;;10.80;4.80;;;14.10;99.90;;;;;;4992734;28;20038;-65
2022/09/12 00:05:32;;;;;;;10.68;5.80;;;14.10;99.90;;;;;;4987676;28;20033;-61
2022/09/12 00:07:59;;;;;;;8.52;5.38;;;14.00;99.90;;;;;;4992871;28;20053;-61
2022/09/12 00:10:25;;;;;;;9.93;6.00;;;14.00;99.90;;;;;;4991047;28;20030;-60
2022/09/12 00:12:51;;;;;;;7.32;5.80;;;13.90;99.90;;;;;;4991850;28;20117;-59
2022/09/12 00:15:17;;;;;;;13.85;5.50;;;14.00;99.90;;;;;;4989872;28;20486;-60
2022/09/12 00:17:43;;;;;;;9.35;5.50;;;14.00;99.90;;;;;;4992678;28;20030;-60
2022/09/12 00:20:10;;;;;;;6.75;5.20;;;14.00;99.90;;;;;;4989495;28;20022;-60
2022/09/12 00:22:35;;;;;;;7.13;4.72;;;14.00;99.90;;;;;;4991416;28;20061;-60
2022/09/12 00:25:02;;;;;;;9.57;4.95;;;14.00;99.90;;;;;;4992374;28;20061;-60
2022/09/12 00:27:28;;;;;;;6.45;5.32;;;13.90;99.90;;;;;;4987055;28;20038;-62
2022/09/12 00:29:54;;;;;;;8.57;5.65;;;14.00;99.90;;;;;;4992931;28;20030;-61
2022/09/12 00:32:20;;;;;;;7.55;5.25;;;13.90;99.90;;;;;;4990117;28;20033;-59
2022/09/12 00:34:46;;;;;;;10.38;5.93;;;13.90;99.90;;;;;;4992362;28;20037;-60
2022/09/12 00:37:12;;;;;;;10.15;5.38;;;13.90;99.90;;;;;;4986835;28;20026;-60
2022/09/12 00:39:38;;;;;;;8.10;4.80;;;13.90;99.90;;;;;;4991372;28;20048;-60
2022/09/12 00:42:03;;;;;;;12.57;6.60;;;13.90;99.90;;;;;;4992576;28;20031;-60
2022/09/12 00:44:29;;;;;;;7.32;6.05;;;13.80;99.90;;;;;;4989894;28;20088;-60
2022/09/12 00:46:59;;;;;;;10.20;5.88;;;13.80;99.90;;;;;;4992124;28;20089;-61
2022/09/12 00:49:47;;;;;;;11.10;5.68;;;13.80;99.90;;;;;;4990395;28;20451;-60
2022/09/12 00:52:15;;;;;;;13.73;6.20;;;13.90;99.90;;;;;;4990044;28;20034;-60
2022/09/12 00:54:58;;;;;;;11.90;6.88;;;13.90;99.90;;;;;;4989207;28;20022;-60
2022/09/12 00:57:31;;;;;;;9.40;5.97;;;13.90;99.90;;;;;;4987030;28;20077;-60
2022/09/12 01:00:08;;;;;;;8.93;5.20;;;13.80;99.90;;;;;;4989874;28;20058;-60
2022/09/12 01:02:34;;;;;;;11.88;7.63;;;13.90;99.90;;;;;;4989917;28;20031;-61
2022/09/12 01:05:00;;;;;;;13.13;8.27;;;13.90;99.90;;;;;;4991824;28;20482;-61
2022/09/12 01:07:27;;;;;;;17.67;10.18;;;13.70;99.90;;;;;;4989857;28;20678;-61
2022/09/12 01:09:53;;;;;;;13.32;9.73;;;13.60;99.90;;;;;;4991086;28;20031;-59
2022/09/12 01:12:19;;;;;;;17.50;10.30;;;13.50;99.90;;;;;;4986202;28;20035;-60
2022/09/12 01:14:45;;;;;;;15.48;9.73;;;13.40;99.90;;;;;;4990992;28;20034;-60
2022/09/12 01:17:13;;;;;;;16.35;10.15;;;13.40;99.90;;;;;;4986417;28;20041;-59
2022/09/12 01:20:02;;;;;;;17.00;10.07;;;13.30;99.90;;;;;;4991349;28;20441;-61
2022/09/12 01:22:36;;;;;;;14.45;9.07;;;13.20;99.90;;;;;;4985778;28;20338;-60
2022/09/12 01:25:43;;;;;;;14.70;9.68;;;13.20;99.90;;;;;;4991018;28;20022;-61
2022/09/12 01:28:53;;;;;;;15.00;10.13;;;13.20;99.90;;;;;;4948062;28;20150;-60
2022/09/12 01:31:21;;;;;;;18.98;10.00;;;13.20;99.90;;;;;;4893812;29;20725;-61
2022/09/12 01:34:11;;;;;;;15.07;9.05;;;13.20;99.90;;;;;;4895389;29;20051;-61
2022/09/12 01:36:50;;;;;;;15.20;9.95;;;13.20;99.90;;;;;;4891923;29;20029;-61
2022/09/12 01:39:29;;;;;;;13.43;9.25;;;13.20;99.90;;;;;;4901591;29;20547;-61
2022/09/12 01:42:08;;;;;;;15.23;8.90;;;13.20;99.90;;;;;;4891833;29;20428;-61
2022/09/12 01:44:45;;;;;;;12.77;8.25;;;13.10;99.90;;;;;;4887122;29;20037;-61
2022/09/12 01:47:21;;;;;;;15.13;8.02;;;13.10;99.90;;;;;;4896702;29;20524;-61
2022/09/12 01:50:09;;;;;;;14.82;8.85;;;13.10;99.90;;;;;;4895147;29;20123;-59
2022/09/12 01:52:48;;;;;;;13.63;8.63;;;13.10;99.90;;;;;;4894073;29;20032;-60
2022/09/12 01:55:48;;;;;;;15.07;8.23;;;13.10;99.90;;;;;;4891130;29;20127;-59
2022/09/12 01:58:22;;;;;;;11.38;7.53;;;13.10;99.90;;;;;;4842140;29;20073;-60
2022/09/12 02:01:06;;;;;;;14.93;8.13;;;13.10;99.90;;;;;;4838555;29;20436;-61
2022/09/12 02:04:08;;;;;;;12.10;8.30;;;13.10;99.90;;;;;;4854076;29;20129;-60
2022/09/12 02:06:43;;;;;;;9.65;6.75;;;13.10;99.90;;;;;;4876661;29;20041;-60
2022/09/12 02:09:17;;;;;;;9.40;6.75;;;13.10;99.90;;;;;;4904925;29;20500;-59
2022/09/12 02:11:43;;;;;;;11.20;7.90;;;13.10;99.90;;;;;;4911584;29;20499;-60
2022/09/12 02:14:15;;;;;;;12.30;8.38;;;13.20;99.90;;;;;;4903629;29;20043;-60
2022/09/12 02:16:54;;;;;;;12.15;7.75;;;13.20;99.90;;;;;;4908874;29;20086;-61
2022/09/12 02:19:23;;;;;;;11.27;7.43;;;13.20;99.90;;;;;;4908442;29;20047;-61
2022/09/12 02:21:57;;;;;;;11.07;8.00;;;13.10;99.90;;;;;;4910476;29;20036;-61
2022/09/12 02:24:30;;;;;;;12.35;7.75;;;13.10;99.90;;;;;;4908484;29;20036;-60
2022/09/12 02:27:02;;;;;;;10.45;7.05;;;13.20;99.90;;;;;;4910887;29;20028;-60
2022/09/12 02:29:29;;;;;;;11.13;7.40;;;13.10;99.90;;;;;;4902637;29;20135;-60
2022/09/12 02:32:02;;;;;;;10.57;7.82;;;13.20;99.90;;;;;;4909159;29;20542;-60
2022/09/12 02:34:48;;;;;;;11.50;7.85;;;13.20;99.90;;;;;;4943455;28;20129;-62
2022/09/12 02:37:53;;;;;;;9.00;6.82;;;13.20;99.90;;;;;;4983975;28;20494;-59
2022/09/12 02:40:19;;;;;;;10.57;6.78;;;13.20;99.90;;;;;;4987684;28;20034;-60
2022/09/12 02:42:45;;;;;;;11.48;6.90;;;13.20;99.90;;;;;;4987355;28;20754;-61
2022/09/12 02:45:12;;;;;;;10.68;6.82;;;13.20;99.90;;;;;;4988112;28;20030;-60
2022/09/12 02:48:01;;;;;;;12.35;7.35;;;13.20;99.90;;;;;;4989691;28;20077;-60
2022/09/12 02:50:28;;;;;;;13.20;7.05;;;13.30;99.90;;;;;;4986445;28;20084;-60
2022/09/12 02:52:58;;;;;;;9.90;6.88;;;13.20;99.90;;;;;;4989767;28;20045;-60
2022/09/12 02:55:25;;;;;;;9.70;6.47;;;13.20;99.90;;;;;;4988082;28;20044;-60
2022/09/12 02:57:51;;;;;;;7.65;6.03;;;13.20;99.90;;;;;;4988985;28;20441;-60
2022/09/12 03:00:16;;;;;;;10.32;6.03;;;13.20;99.90;;;;;;4986894;28;20058;-60
2022/09/12 03:03:00;;;;;;;10.98;6.30;;;13.30;99.90;;;;;;4987698;28;20026;-60
2022/09/12 03:05:36;;;;;;;9.95;6.65;;;13.30;99.90;;;;;;4982125;28;20046;-60
2022/09/12 03:08:39;;;;;;;10.02;6.05;;;13.20;99.90;;;;;;4987996;28;20041;-60
2022/09/12 03:11:40;;;;;;;9.15;5.95;;;13.10;99.90;;;;;;4988025;28;20150;-60
2022/09/12 03:14:54;;;;;;;9.20;7.13;;;13.10;99.90;;;;;;4961519;28;20117;-61
2022/09/12 03:17:49;;;;;;;7.97;6.63;;;13.20;99.90;;;;;;4870889;29;20072;-61
2022/09/12 03:20:24;;;;;;;7.78;6.32;;;13.20;99.90;;;;;;4871530;29;20471;-62
2022/09/12 03:22:55;;;;;;;9.30;6.15;;;13.20;99.90;;;;;;4873664;29;20049;-60
2022/09/12 03:25:40;;;;;;;9.32;5.80;;;13.10;99.90;;;;;;4868548;29;20140;-61
2022/09/12 03:28:13;;;;;;;6.80;5.22;;;13.20;99.90;;;;;;4872313;29;20382;-60
2022/09/12 03:30:40;;;;;;;6.50;3.42;;;13.20;99.90;;;;;;4865598;29;20043;-61
2022/09/12 03:33:10;;;;;;;5.50;3.50;;;13.20;99.90;;;;;;4873766;29;20112;-60
2022/09/12 03:35:36;;;;;;;7.05;3.70;;;13.20;99.90;;;;;;4869145;29;20041;-60
2022/09/12 03:38:02;;;;;;;5.88;4.05;;;13.30;99.90;;;;;;4869105;29;20117;-63
2022/09/12 03:40:27;;;;;;;5.57;4.68;;;13.30;99.90;;;;;;4870903;29;20033;-61
2022/09/12 03:42:53;;;;;;;6.35;5.05;;;13.30;99.90;;;;;;4872710;29;20502;-62
2022/09/12 03:45:19;;;;;;;7.30;5.20;;;13.20;99.90;;;;;;4871797;29;20030;-60
2022/09/12 03:47:45;;;;;;;6.05;4.90;;;13.20;99.90;;;;;;4908159;28;20391;-61
2022/09/12 03:50:10;;;;;;;8.98;5.82;;;13.30;99.90;;;;;;4974007;28;20034;-60
2022/09/12 03:52:36;;;;;;;7.05;5.55;;;13.30;99.90;;;;;;4993103;28;20513;-61
2022/09/12 03:55:02;;;;;;;6.35;5.38;;;13.30;99.90;;;;;;4992925;28;20034;-60
2022/09/12 03:57:28;;;;;;;7.93;5.20;;;13.50;99.90;;;;;;4991115;28;20381;-60
2022/09/12 03:59:53;;;;;;;14.45;5.95;;;13.40;99.90;;;;;;4993374;28;20022;-61
2022/09/12 04:02:19;;;;;;;8.75;5.78;;;13.40;99.90;;;;;;4990125;28;20034;-63
2022/09/12 04:04:47;;;;;;;7.47;4.72;;;13.40;99.90;;;;;;4992136;28;20072;-60
2022/09/12 04:07:14;;;;;;;9.30;5.28;;;13.40;99.90;;;;;;4990754;28;20580;-60
2022/09/12 04:09:40;;;;;;;5.82;4.80;;;13.50;99.90;;;;;;4992330;28;20474;-62
2022/09/12 04:12:06;;;;;;;9.35;5.60;;;13.50;99.90;;;;;;4992125;28;20035;-59
2022/09/12 04:14:32;;;;;;;9.68;5.57;;;13.60;99.90;;;;;;4992416;28;20549;-60
2022/09/12 04:16:59;;;;;;;7.07;4.95;;;13.60;99.90;;;;;;4991195;28;20125;-61
2022/09/12 04:19:25;;;;;;;6.75;4.70;;;13.60;99.90;;;;;;4990637;28;20057;-60
2022/09/12 04:21:52;;;;;;;8.48;5.38;;;13.60;99.90;;;;;;4990446;28;20516;-61
2022/09/12 04:24:17;;;;;;;9.02;5.00;;;13.50;99.90;;;;;;4988250;28;20072;-60
2022/09/12 04:26:43;;;;;;;7.13;4.40;;;13.50;99.90;;;;;;4988064;28;20034;-60
2022/09/12 04:29:13;;;;;;;9.57;5.35;;;13.60;99.90;;;;;;4989910;28;20445;-61
2022/09/12 04:31:40;;;;;;;6.95;5.50;;;13.70;99.90;;;;;;4991929;28;20033;-60
2022/09/12 04:34:06;;;;;;;8.98;5.50;;;13.70;99.90;;;;;;4991648;28;20049;-59
2022/09/12 04:36:33;;;;;;;13.13;6.47;;;13.60;99.90;;;;;;4983748;28;20018;-60
2022/09/12 04:39:00;;;;;;;9.88;6.43;;;13.70;99.90;;;;;;4991760;28;20077;-61
2022/09/12 04:41:44;;;;;;;10.68;6.28;;;13.70;99.90;;;;;;4988887;28;20109;-61
2022/09/12 04:44:12;;;;;;;12.63;6.75;;;13.80;99.90;;;;;;4986237;28;20034;-60
2022/09/12 04:46:41;;;;;;;11.55;7.03;;;13.90;99.90;;;;;;4991624;28;20382;-61
2022/09/12 04:49:07;;;;;;;8.18;6.57;;;14.00;99.90;;;;;;4991370;28;20375;-60
2022/09/12 04:51:35;;;;;;;7.65;5.70;;;14.00;99.90;;;;;;4991018;28;20109;-60
2022/09/12 04:54:04;;;;;;;9.00;5.80;;;13.90;99.90;;;;;;4991890;28;20042;-60
2022/09/12 04:56:30;;;;;;;9.80;5.70;;;13.90;99.90;;;;;;4986050;28;20099;-63
2022/09/12 04:58:57;;;;;;;8.07;5.20;;;13.90;99.90;;;;;;4991426;28;20034;-61
2022/09/12 05:01:23;;;;;;;10.13;5.80;;;13.90;99.90;;;;;;4986593;28;20030;-61
2022/09/12 05:03:50;;;;;;;7.07;5.43;;;13.90;99.90;;;;;;4990873;28;20041;-60
2022/09/12 05:06:21;;;;;;;9.88;5.43;;;13.90;99.90;;;;;;4986655;28;20105;-61
2022/09/12 05:08:47;;;;;;;8.05;5.20;;;13.90;99.90;;;;;;4991548;28;20073;-61
2022/09/12 05:11:17;;;;;;;10.77;5.63;;;13.90;99.90;;;;;;4988610;28;20347;-60
2022/09/12 05:13:43;;;;;;;10.65;5.53;;;13.90;99.90;;;;;;4990546;28;20505;-60
2022/09/12 05:16:11;;;;;;;7.80;5.57;;;14.00;99.90;;;;;;4989168;28;20038;-60
2022/09/12 05:18:37;;;;;;;10.25;6.25;;;14.00;99.90;;;;;;4989113;28;20030;-60
2022/09/12 05:21:06;;;;;;;14.15;8.55;;;14.10;99.90;;;;;;4990859;28;20080;-60
2022/09/12 05:23:33;;;;;;;8.27;7.32;;;14.10;99.90;;;;;;4989902;28;20026;-60
2022/09/12 05:26:00;;;;;;;17.75;7.75;;;14.10;99.90;;;;;;4989861;28;20054;-60
2022/09/12 05:28:33;;;;;;;14.55;7.95;;;14.10;99.90;;;;;;4989728;28;20088;-61
2022/09/12 05:31:19;;;;;;;11.65;6.72;;;14.20;99.90;;;;;;4990359;28;20050;-62
2022/09/12 05:33:47;;;;;;;8.48;6.68;;;14.20;99.90;;;;;;4984971;28;20053;-60
2022/09/12 05:36:19;;;;;;;10.13;6.07;;;14.30;99.90;;;;;;4987463;28;20022;-60
2022/09/12 05:38:46;;;;;;;6.57;5.72;;;14.30;99.90;;;;;;4991095;28;20490;-60
2022/09/12 05:41:17;;;;;;;11.88;5.75;;;14.30;99.90;;;;;;4988252;28;20031;-60
2022/09/12 05:43:44;;;;;;;12.38;6.53;;;14.30;99.90;;;;;;4990760;28;20029;-61
2022/09/12 05:46:13;;;;;;;11.02;5.95;;;14.30;99.90;;;;;;4987556;28;20518;-60
2022/09/12 05:48:42;;;;;;;9.85;5.35;;;14.40;99.90;;;;;;4990550;28;20050;-61
2022/09/12 05:51:20;;;;;;;12.27;5.93;;;14.60;99.90;;;;;;4990195;28;20041;-61
2022/09/12 05:53:52;;;;;;;19.08;6.07;;;14.70;99.90;;;;;;4990958;28;20050;-61
2022/09/12 05:56:22;;;;;;;10.70;5.28;;;14.70;99.90;;;;;;4986675;28;20029;-62
2022/09/12 05:58:56;;;;;;;8.32;4.97;;;14.80;99.90;;;;;;4989049;28;20031;-60
2022/09/12 06:01:22;;;;;;;11.02;5.55;;;14.80;99.90;;;;;;4984960;28;20037;-61
2022/09/12 06:03:50;;;;;;;11.07;3.72;;;14.90;99.90;;;;;;4987292;28;20041;-61
2022/09/12 06:06:21;;;;;;;11.35;5.80;;;14.90;99.90;;;;;;4987131;28;20189;-61
2022/09/12 06:08:49;;;;;;;7.53;4.70;;;15.00;99.90;;;;;;4984443;28;20038;-61
2022/09/12 06:11:18;;;;;;;11.13;5.55;;;15.10;99.90;;;;;;4987534;28;20030;-61
2022/09/12 06:13:44;;;;;;;7.20;4.90;;;15.20;99.90;;;;;;4988566;28;20033;-61
2022/09/12 06:16:15;;;;;;;6.03;4.22;;;15.20;99.90;;;;;;4981662;28;20018;-61
2022/09/12 06:18:45;;;;;;;15.75;6.15;;;15.20;99.90;;;;;;4990634;28;20030;-59
2022/09/12 06:21:12;;;;;;;9.35;5.93;;;15.30;99.90;;;;;;4987882;28;20116;-60
2022/09/12 06:23:39;;;;;;;8.73;6.10;;;15.40;99.90;;;;;;4990201;28;20040;-61
2022/09/12 06:26:07;;;;;;;15.10;5.55;;;15.50;99.90;;;;;;4989772;28;20030;-61
2022/09/12 06:28:35;;;;;;;13.88;6.65;;;15.60;99.90;;;;;;4987210;28;20042;-60
2022/09/12 06:31:06;;;;;;;9.98;6.32;;;15.70;99.90;;;;;;4986491;28;20116;-59
2022/09/12 06:33:34;;;;;;;10.20;5.63;;;15.80;99.90;;;;;;4980201;28;20196;-60
2022/09/12 06:36:09;;;;;;;9.15;5.10;;;15.80;99.90;;;;;;4988918;28;20116;-60
2022/09/12 06:38:35;;;;;;;12.85;6.10;;;16.00;99.90;;;;;;4987130;28;20061;-60
2022/09/12 06:41:06;;;;;;;11.15;6.03;;;16.20;99.90;;;;;;4989390;28;20026;-60
2022/09/12 06:43:33;;;;;;;10.98;6.75;;;16.20;99.90;;;;;;4988441;28;20089;-61
2022/09/12 06:46:00;;;;;;;10.80;5.68;;;16.20;99.90;;;;;;4988677;28;20030;-60
2022/09/12 06:48:26;;;;;;;10.82;5.95;;;16.30;99.90;;;;;;4981685;28;20042;-60
2022/09/12 06:51:03;;;;;;;14.23;5.68;;;16.40;99.90;;;;;;4989649;28;20042;-61
2022/09/12 06:53:32;;;;;;;10.07;6.15;;;16.50;99.90;;;;;;4987865;28;20030;-61
2022/09/12 06:56:02;;;;;;;7.03;4.80;;;16.50;99.90;;;;;;4984632;28;20035;-61
2022/09/12 06:58:29;;;;;;;5.95;5.10;;;16.60;99.90;;;;;;4986063;28;20077;-60
2022/09/12 07:01:04;;;;;;;9.38;5.47;;;16.60;99.90;;;;;;4989455;28;20053;-61
2022/09/12 07:03:30;;;;;;;11.55;5.97;;;16.70;99.90;;;;;;4986642;28;20097;-60
2022/09/12 07:05:56;;;;;;;9.35;5.40;;;16.80;99.90;;;;;;4985023;28;20037;-61
2022/09/12 07:08:22;;;;;;;9.15;4.90;;;16.90;99.90;;;;;;4985314;28;20367;-60
2022/09/12 07:10:48;;;;;;;10.15;4.78;;;17.00;99.90;;;;;;4983547;28;20073;-60
2022/09/12 07:13:13;;;;;;;12.73;6.22;;;17.10;99.90;;;;;;4986624;28;20490;-63
2022/09/12 07:15:39;;;;;;;11.60;6.13;;;17.20;99.90;;;;;;4988146;28;20085;-61
2022/09/12 07:18:05;;;;;;;9.40;4.47;;;17.20;99.90;;;;;;4988041;28;20077;-61
2022/09/12 07:20:36;;;;;;;5.22;3.40;;;17.40;99.90;;;;;;4982270;28;20022;-60
2022/09/12 07:23:01;;;;;;;8.15;3.13;;;17.50;99.90;;;;;;4988400;28;20026;-61
2022/09/12 07:25:27;;;;;;;14.18;3.97;;;17.60;99.90;;;;;;4991185;28;20030;-61
2022/09/12 07:27:54;;;;;;;6.70;2.85;;;17.70;99.90;;;;;;4991055;28;20039;-62
2022/09/12 07:30:21;;;;;;;6.85;3.30;;;17.80;99.90;;;;;;4994185;28;20026;-60
2022/09/12 07:32:46;;;;;;;6.32;2.50;;;17.80;99.90;;;;;;4992261;28;20072;-61
2022/09/12 07:35:12;;;;;;;6.93;3.08;;;17.90;99.90;;;;;;4989577;28;20057;-61
2022/09/12 07:37:38;;;;;;;8.70;2.75;;;17.90;99.90;;;;;;4991615;28;20037;-60
2022/09/12 07:40:04;;;;;;;7.53;2.63;;;18.00;99.90;;;;;;4991943;28;20050;-62
2022/09/12 07:42:30;;;;;;;8.95;2.90;;;18.00;99.90;;;;;;4989966;28;20029;-61
2022/09/12 07:44:55;;;;;;;7.28;2.75;;;18.00;99.90;;;;;;4991515;28;20030;-61
2022/09/12 07:47:21;;;;;;;5.72;2.20;;;18.10;99.90;;;;;;4990930;28;20402;-61
2022/09/12 07:49:47;;;;;;;7.75;2.40;;;18.10;99.90;;;;;;4990932;28;20030;-61
2022/09/12 07:52:12;;;;;;;6.68;3.00;;;18.20;99.90;;;;;;4990699;28;20019;-61
2022/09/12 07:54:38;;;;;;;6.30;2.30;;;18.20;99.90;;;;;;4991331;28;20033;-60
2022/09/12 07:57:04;;;;;;;12.43;3.65;;;18.30;99.90;;;;;;4992085;28;20117;-61
2022/09/12 07:59:30;;;;;;;5.07;2.40;;;18.40;99.90;;;;;;4988244;28;20149;-59
2022/09/12 08:01:55;;;;;;;12.60;2.50;;;18.50;99.90;;;;;;4990362;28;20054;-62
2022/09/12 08:04:21;;;;;;;4.03;1.90;;;18.60;99.90;;;;;;4989755;28;20371;-61
2022/09/12 08:06:47;;;;;;;6.30;2.10;;;18.70;99.90;;;;;;4983146;28;20030;-60
2022/09/12 08:09:16;;;;;;;12.38;2.50;;;18.90;99.90;;;;;;4990277;28;20379;-61
2022/09/12 08:11:42;;;;;;;5.45;1.95;;;18.90;99.90;;;;;;4988487;28;20026;-62
2022/09/12 08:14:08;;;;;;;5.18;1.95;;;19.00;99.90;;;;;;4991465;28;20034;-60
2022/09/12 08:16:34;;;;;;;4.43;1.60;;;19.20;99.90;;;;;;4990377;28;20035;-61
2022/09/12 08:19:01;;;;;;;3.95;1.25;;;19.20;99.90;;;;;;4990578;28;20031;-61
2022/09/12 08:21:29;;;;;;;2.33;1.33;;;19.30;99.90;;;;;;4989543;28;20470;-60
2022/09/12 08:24:01;;;;;;;5.93;1.75;;;19.40;99.90;;;;;;4992282;28;20097;-61
2022/09/12 08:26:27;;;;;;;3.90;1.23;;;19.50;99.90;;;;;;4988181;28;20027;-61
2022/09/12 08:28:53;;;;;;;7.93;1.50;;;19.70;99.90;;;;;;4991308;28;20104;-61
2022/09/12 08:31:21;;;;;;;9.48;1.45;;;19.70;99.90;;;;;;4988783;28;20040;-60
2022/09/12 08:33:47;;;;;;;5.35;2.70;;;19.80;99.90;;;;;;4989868;28;20069;-61
2022/09/12 08:36:15;;;;;;;6.03;1.10;;;19.90;99.90;;;;;;4988443;28;20065;-61
2022/09/12 08:38:44;;;;;;;4.05;1.08;;;19.90;99.90;;;;;;4979894;28;20054;-60
2022/09/12 08:41:36;;;;;;;4.43;1.05;;;20.10;99.90;;;;;;4972524;28;20023;-61
2022/09/12 08:44:30;;;;;;;5.60;1.73;;;20.10;99.90;;;;;;4986903;28;20106;-61
2022/09/12 08:47:14;;;;;;;6.38;1.60;;;20.20;99.90;;;;;;4990684;28;20030;-61
2022/09/12 08:50:14;;;;;;;2.20;1.40;;;20.20;99.90;;;;;;4990964;28;20034;-61
2022/09/12 08:53:02;;;;;;;3.47;0.90;;;20.20;99.90;;;;;;4988547;28;20109;-60
2022/09/12 08:55:43;;;;;;;8.32;1.40;;;20.20;99.90;;;;;;4989607;28;20038;-61
2022/09/12 08:58:21;;;;;;;1.77;0.90;;;20.30;99.90;;;;;;4987473;28;20063;-60
2022/09/12 09:01:06;;;;;;;12.43;1.70;;;20.30;99.90;;;;;;4984942;28;20039;-61
2022/09/12 09:03:49;;;;;;;6.32;1.65;;;20.20;99.90;;;;;;4988892;28;20072;-61
2022/09/12 09:06:18;;;;;;;4.82;1.27;;;20.40;99.90;;;;;;4989405;28;20489;-60
2022/09/12 09:08:50;;;;;;;2.97;1.15;;;20.50;99.90;;;;;;4984900;28;20119;-61
2022/09/12 09:11:57;;;;;;;3.22;1.65;;;20.70;99.90;;;;;;4988480;28;20022;-61
2022/09/12 09:17:24;;;;;;;3.75;1.08;;;21.10;99.90;;;;;;4947623;29;20034;-60
2022/09/12 09:20:01;;;;;;;3.30;0.90;;;21.20;99.90;;;;;;4947813;28;20093;-61
2022/09/12 09:22:43;;;;;;;2.83;1.00;;;21.40;99.90;;;;;;4947646;29;20286;-60
2022/09/12 09:25:38;;;;;;;2.75;1.30;;;21.40;99.90;;;;;;4947784;28;20043;-61
2022/09/12 09:28:29;;;;;;;2.30;1.10;;;21.40;99.90;;;;;;4944073;29;20062;-61
2022/09/12 09:30:55;;;;;;;4.38;1.08;;;21.40;99.90;;;;;;4949632;29;20135;-61
2022/09/12 09:33:23;;;;;;;7.05;1.20;;;21.40;99.90;;;;;;4947542;28;20039;-60
2022/09/12 09:36:06;;;;;;;5.05;1.33;;;21.50;99.90;;;;;;4949737;29;20062;-62
2022/09/12 09:38:53;;;;;;;4.03;1.55;;;21.60;99.90;;;;;;4946726;28;20043;-61
2022/09/12 09:41:39;;;;;;;3.53;1.10;;;21.60;99.90;;;;;;4947580;29;20066;-61
2022/09/12 09:44:05;;;;;;;4.55;1.60;;;21.60;99.90;;;;;;4949313;28;20110;-60
2022/09/12 09:46:31;;;;;;;14.05;3.70;;;21.60;99.90;;;;;;4986521;28;20169;-61
2022/09/12 09:48:59;;;;;;;7.70;1.52;;;21.50;99.90;;;;;;4989466;28;20422;-61
2022/09/12 09:51:31;;;;;;;2.70;1.40;;;21.50;99.90;;;;;;4988874;28;20434;-66
2022/09/12 09:54:02;;;;;;;2.88;1.30;;;21.50;99.90;;;;;;4990112;28;20048;-61
2022/09/12 09:56:41;;;;;;;2.58;1.42;;;21.50;99.90;;;;;;4986145;28;20429;-61
2022/09/12 09:59:17;;;;;;;3.65;1.50;;;21.50;99.90;;;;;;4988210;28;20268;-61
2022/09/12 10:01:44;;;;;;;1.02;0.75;;;21.50;99.90;;;;;;4986593;28;20041;-61
2022/09/12 10:04:18;;;;;;;1.73;0.73;;;21.50;99.90;;;;;;4981687;28;20022;-61
2022/09/12 10:06:44;;;;;;;5.45;1.27;;;21.80;99.90;;;;;;4988590;28;20031;-62
2022/09/12 10:09:24;;;;;;;9.68;2.83;;;22.10;99.90;;;;;;4988652;28;20109;-62
2022/09/12 10:11:50;;;;;;;3.85;0.95;;;22.40;99.90;;;;;;4988576;28;20379;-62
2022/09/12 10:14:39;;;;;;;2.95;0.70;;;22.60;99.90;;;;;;4988250;28;20043;-61
2022/09/12 10:17:27;;;;;;;4.78;0.70;;;22.80;99.90;;;;;;4988014;28;20970;-61
2022/09/12 10:19:53;;;;;;;2.40;0.90;;;23.10;99.90;;;;;;4984288;28;20482;-62
2022/09/12 10:22:23;;;;;;;2.03;0.70;;;23.40;99.90;;;;;;4986727;28;20023;-61
2022/09/12 10:24:59;;;;;;;2.47;1.00;;;23.70;99.90;;;;;;4989233;28;20027;-61
2022/09/12 10:27:29;;;;;;;2.50;1.13;;;23.90;99.90;;;;;;4982734;28;20108;-61
2022/09/12 10:30:16;;;;;;;1.65;0.80;;;23.90;99.90;;;;;;4989331;28;20113;-60
2022/09/12 10:32:45;;;;;;;4.22;0.90;;;24.10;99.90;;;;;;4989333;28;20378;-61
2022/09/12 10:35:20;;;;;;;7.43;2.85;;;24.40;99.90;;;;;;4983805;28;20081;-61
2022/09/12 10:38:06;;;;;;;4.30;0.95;;;24.60;99.90;;;;;;4987630;28;20030;-61
2022/09/12 10:40:40;;;;;;;6.15;1.10;;;24.40;99.90;;;;;;4985307;28;20482;-61
2022/09/12 10:43:37;;;;;;;4.03;0.90;;;24.60;99.90;;;;;;4989467;28;20034;-62
2022/09/12 10:46:14;;;;;;;2.83;1.10;;;24.70;99.90;;;;;;4983205;28;20030;-61
2022/09/12 10:48:41;;;;;;;6.22;1.00;;;24.70;99.90;;;;;;4982969;28;20065;-62
2022/09/12 10:51:25;;;;;;;5.68;1.02;;;24.70;99.90;;;;;;4989445;28;20530;-62
2022/09/12 10:53:55;;;;;;;3.13;0.90;;;24.90;99.90;;;;;;4989630;28;20170;-62
2022/09/12 10:56:24;;;;;;;2.83;1.08;;;24.90;99.90;;;;;;4984003;28;20026;-61
2022/09/12 10:59:12;;;;;;;4.93;0.95;;;24.90;99.90;;;;;;4986407;28;20038;-61
2022/09/12 11:02:05;;;;;;;3.40;1.15;;;25.10;99.90;;;;;;4994111;28;20502;-61
2022/09/12 11:04:55;;;;;;;2.22;0.88;;;25.00;99.90;;;;;;4989403;28;20034;-61
2022/09/12 11:07:42;;;;;;;3.33;0.85;;;25.10;99.90;;;;;;4989843;28;20038;-61
2022/09/12 11:10:17;;;;;;;2.20;1.50;;;24.80;99.90;;;;;;4992202;28;20080;-60
2022/09/12 11:12:51;;;;;;;3.95;1.40;;;24.60;99.90;;;;;;4988786;28;20402;-60
2022/09/12 11:15:36;;;;;;;2.20;0.95;;;24.40;99.90;;;;;;4988072;28;20846;-61
2022/09/12 11:18:25;;;;;;;3.00;1.00;;;24.30;99.90;;;;;;4992656;28;20034;-62
2022/09/12 11:21:09;;;;;;;4.22;0.90;;;24.10;99.90;;;;;;4991861;28;20030;-62
2022/09/12 11:23:54;;;;;;;3.30;1.40;;;24.00;99.90;;;;;;4996220;28;20030;-62
2022/09/12 11:26:48;;;;;;;6.65;1.20;;;24.10;99.90;;;;;;4991735;28;20048;-61
2022/09/12 11:29:53;;;;;;;4.43;1.38;;;23.90;99.90;;;;;;4987021;28;20048;-62
2022/09/12 11:32:37;;;;;;;3.55;1.10;;;23.90;99.90;;;;;;4988488;28;20056;-61
2022/09/12 11:35:12;;;;;;;3.42;1.30;;;24.20;99.90;;;;;;4991353;28;20045;-61
2022/09/12 11:38:02;;;;;;;4.63;1.30;;;24.80;99.90;;;;;;4988254;28;20026;-60
2022/09/12 11:40:30;;;;;;;5.40;1.67;;;25.10;99.90;;;;;;4989693;28;20042;-61
2022/09/12 11:43:10;;;;;;;6.38;1.33;;;25.20;99.90;;;;;;4989396;28;20018;-61
2022/09/12 11:45:42;;;;;;;5.57;1.67;;;25.20;99.90;;;;;;4988030;28;20038;-62
2022/09/12 11:48:18;;;;;;;3.53;1.52;;;25.00;99.90;;;;;;4988690;28;20081;-62
2022/09/12 11:50:43;;;;;;;2.60;1.00;;;24.80;99.90;;;;;;4981608;28;20026;-62
2022/09/12 11:53:22;;;;;;;3.92;1.30;;;24.70;99.90;;;;;;4984371;28;20145;-60
2022/09/12 11:56:15;;;;;;;5.60;1.25;;;24.70;99.90;;;;;;4987967;28;20023;-62
2022/09/12 11:58:47;;;;;;;6.95;1.20;;;25.40;99.90;;;;;;4987683;28;20034;-62
2022/09/12 12:01:21;;;;;;;4.88;1.20;;;26.10;99.90;;;;;;4980941;28;20489;-61
2022/09/12 12:03:47;;;;;;;3.08;1.00;;;26.70;99.90;;;;;;4989243;28;20098;-62
2022/09/12 12:06:58;;;;;;;3.58;1.25;;;26.50;99.90;;;;;;4988030;28;20054;-61
2022/09/12 12:09:24;;;;;;;6.68;1.30;;;26.80;99.90;;;;;;4977576;28;20054;-61
2022/09/12 12:11:55;;;;;;;3.45;1.42;;;26.80;99.90;;;;;;4994071;28;20031;-61
2022/09/12 12:14:42;;;;;;;4.22;1.20;;;26.90;99.90;;;;;;4982090;28;20037;-61
2022/09/12 12:17:17;;;;;;;5.55;1.50;;;27.20;99.90;;;;;;4987324;28;20549;-61
2022/09/12 12:19:45;;;;;;;2.45;1.00;;;27.30;99.90;;;;;;4986519;28;20121;-61
2022/09/12 12:22:22;;;;;;;1.15;0.95;;;27.50;99.90;;;;;;4987882;28;20505;-61
2022/09/12 12:25:05;;;;;;;6.15;0.82;;;27.50;99.90;;;;;;4988045;28;20034;-60
2022/09/12 12:27:45;;;;;;;4.03;1.40;;;27.40;99.90;;;;;;4988285;28;20041;-61
2022/09/12 12:30:29;;;;;;;5.07;1.13;;;27.80;99.90;;;;;;4988587;28;20025;-60
2022/09/12 12:33:06;;;;;;;2.83;1.15;;;27.40;99.90;;;;;;4991256;28;20034;-61
2022/09/12 12:35:35;;;;;;;1.73;0.90;;;27.80;99.90;;;;;;4987264;28;20493;-62
2022/09/12 12:38:02;;;;;;;1.25;0.75;;;27.90;99.90;;;;;;4988872;28;20034;-61
2022/09/12 12:40:29;;;;;;;5.82;1.30;;;27.90;99.90;;;;;;4987853;28;20038;-63
2022/09/12 12:42:55;;;;;;;3.35;1.15;;;28.30;99.90;;;;;;4989583;28;20073;-61
2022/09/12 12:45:27;;;;;;;2.50;1.00;;;28.40;99.90;;;;;;4988909;28;20053;-61
2022/09/12 12:47:54;;;;;;;5.18;1.33;;;28.60;99.90;;;;;;4991106;28;20038;-62
2022/09/12 12:50:19;;;;;;;2.53;0.90;;;28.60;99.90;;;;;;4988877;28;20031;-62
2022/09/12 12:53:03;;;;;;;1.98;0.95;;;28.40;99.90;;;;;;4991117;28;20033;-62
2022/09/12 12:55:44;;;;;;;3.63;0.85;;;28.70;99.90;;;;;;4987715;28;20031;-61
2022/09/12 12:58:33;;;;;;;2.85;0.95;;;28.90;99.90;;;;;;4984437;28;20165;-63
2022/09/12 13:01:04;;;;;;;4.13;1.15;;;29.20;99.90;;;;;;4986855;28;20039;-62
2022/09/12 13:03:33;;;;;;;0.85;0.55;;;29.40;99.90;;;;;;4980822;28;20130;-61
2022/09/12 13:06:03;;;;;;;1.92;0.98;;;29.60;99.50;;;;;;4991128;28;20053;-61
2022/09/12 13:08:31;;;;;;;5.55;1.00;;;29.40;97.70;;;;;;4988066;28;20038;-61
2022/09/12 13:11:07;;;;;;;5.10;1.00;;;29.30;98.70;;;;;;4991298;28;20109;-61
2022/09/12 13:13:37;;;;;;;3.33;1.27;;;28.80;98.90;;;;;;4989991;28;20042;-61
2022/09/12 13:16:03;;;;;;;4.80;1.13;;;29.70;97.30;;;;;;4990144;28;20156;-62